Airfield :
LOGIN :

Register | Disclaimer

   EN    FR    IT 

 










Legend :    VFR   Marginal VFR   IFR   Intensive IFR   Very Intensive IFR
Visi :
Ceiling :
>= 8 km
>= 3000ft
5 to 8 km
1000 to 3000 ft
1500m to 5 km
500 to 1000 ft
800 to 1500m
200 to 500 ft
< 800m
< 200 ft
Symbols :   Thunderstorms  Fog  Heavy snow  Heavy precipitations  Wind > 20 kt
SIGMETs :     Misc.  Thunderstorms  Icing  Turbulence  Mountain Waves  Volcanic Ashes







- Airport Elevation : 19 ft
- IATA code : LCY
- Download approach charts


EGLC - London City

CURRENT METAR :
  • 241320Z AUTO 14011KT 9999 NCD 22/09 Q1019

EXPIRED METARs :
  • 241250Z AUTO 13012KT 9999 NCD 21/10 Q1019
  • 241220Z AUTO 13009KT 090V190 9999 NCD 22/11 Q1019
  • 241150Z AUTO 15012KT 9999 NCD 21/11 Q1019
  • 241120Z AUTO 14010KT 9999 NCD 21/11 Q1020
  • 241050Z AUTO 14012KT 9999 NCD 20/11 Q1020

TAF TAF EGLC
Valid from the 24 at 12:00 until the 24 at 21:00 UTC


241103Z 2412/2421 11008KT CAVOK
PROB30
TEMPO 2418/2421 8000
ATIS : +44 20 7646 0224
No reported NOTAMs for that airfield.



MET'MAP, your aeronautical weather chart ! - Copyright ORBIFLY December 2007 - Disclaimer

ORBIFLY MET'MAP TEAM :

Programming & Development : Alexandra Zaïnal
Concept & Development : Baudouin d'Aumeries
Co-Development & Prog : Marc-Olivier Méhu
Technical & hardware support : Manuel Goepfert

Contact : metmap@orbifly.com




SOURCES & CREDITS :

   NOAA